sensor_id;sensor_type;location;lat;lon;timestamp;pressure;altitude;pressure_sealevel;temperature;humidity
9740;BME280;4909;42.680;26.324;2022-11-06T00:01:30;98461.22;;;14.39;84.65
9740;BME280;4909;42.680;26.324;2022-11-06T00:03:57;98455.13;;;14.37;84.65
9740;BME280;4909;42.680;26.324;2022-11-06T00:06:24;98466.84;;;14.49;84.01
9740;BME280;4909;42.680;26.324;2022-11-06T00:09:10;98464.06;;;14.50;83.96
9740;BME280;4909;42.680;26.324;2022-11-06T00:11:39;98471.03;;;14.53;83.53
9740;BME280;4909;42.680;26.324;2022-11-06T00:14:07;98464.94;;;14.51;83.70
9740;BME280;4909;42.680;26.324;2022-11-06T00:16:35;98475.50;;;14.66;82.96
9740;BME280;4909;42.680;26.324;2022-11-06T00:19:02;98473.59;;;14.68;82.58
9740;BME280;4909;42.680;26.324;2022-11-06T00:21:30;98472.94;;;14.65;82.79
9740;BME280;4909;42.680;26.324;2022-11-06T00:23:58;98474.16;;;14.73;82.46
9740;BME280;4909;42.680;26.324;2022-11-06T00:26:26;98472.88;;;14.52;83.17
9740;BME280;4909;42.680;26.324;2022-11-06T00:28:55;98468.75;;;14.61;83.16
9740;BME280;4909;42.680;26.324;2022-11-06T00:31:24;98472.38;;;14.60;83.09
9740;BME280;4909;42.680;26.324;2022-11-06T00:33:52;98446.41;;;14.48;83.34
9740;BME280;4909;42.680;26.324;2022-11-06T00:36:20;98462.34;;;14.49;83.37
9740;BME280;4909;42.680;26.324;2022-11-06T00:38:50;98452.47;;;14.37;84.11
9740;BME280;4909;42.680;26.324;2022-11-06T00:41:17;98445.16;;;14.25;84.17
9740;BME280;4909;42.680;26.324;2022-11-06T00:43:47;98450.13;;;14.31;84.55
9740;BME280;4909;42.680;26.324;2022-11-06T00:46:16;98435.56;;;14.22;84.19
9740;BME280;4909;42.680;26.324;2022-11-06T00:48:43;98464.75;;;14.40;84.09
9740;BME280;4909;42.680;26.324;2022-11-06T00:51:12;98457.50;;;14.42;83.88
9740;BME280;4909;42.680;26.324;2022-11-06T00:53:39;98452.34;;;14.39;84.10
9740;BME280;4909;42.680;26.324;2022-11-06T00:56:08;98450.44;;;14.41;83.97
9740;BME280;4909;42.680;26.324;2022-11-06T00:58:35;98455.25;;;14.34;84.07
9740;BME280;4909;42.680;26.324;2022-11-06T01:01:07;98449.84;;;14.35;84.22
9740;BME280;4909;42.680;26.324;2022-11-06T01:03:35;98432.91;;;14.37;83.46
9740;BME280;4909;42.680;26.324;2022-11-06T01:06:04;98443.00;;;14.46;83.53
9740;BME280;4909;42.680;26.324;2022-11-06T01:08:32;98449.50;;;14.42;83.88
9740;BME280;4909;42.680;26.324;2022-11-06T01:11:05;98453.03;;;14.42;83.73
9740;BME280;4909;42.680;26.324;2022-11-06T01:13:32;98426.75;;;14.34;83.26
9740;BME280;4909;42.680;26.324;2022-11-06T01:15:59;98441.06;;;14.48;83.21
9740;BME280;4909;42.680;26.324;2022-11-06T01:18:25;98443.72;;;14.33;84.03
9740;BME280;4909;42.680;26.324;2022-11-06T01:20:54;98445.84;;;14.43;83.68
9740;BME280;4909;42.680;26.324;2022-11-06T01:23:20;98451.66;;;14.49;83.28
9740;BME280;4909;42.680;26.324;2022-11-06T01:25:55;98442.97;;;14.31;83.48
9740;BME280;4909;42.680;26.324;2022-11-06T01:28:22;98462.53;;;14.32;83.73
9740;BME280;4909;42.680;26.324;2022-11-06T01:30:49;98459.41;;;14.40;83.28
9740;BME280;4909;42.680;26.324;2022-11-06T01:33:16;98459.59;;;14.37;83.27
9740;BME280;4909;42.680;26.324;2022-11-06T01:35:43;98451.38;;;14.25;84.10
9740;BME280;4909;42.680;26.324;2022-11-06T01:38:11;98431.25;;;14.20;83.52
9740;BME280;4909;42.680;26.324;2022-11-06T01:40:39;98450.22;;;14.29;83.75
9740;BME280;4909;42.680;26.324;2022-11-06T01:43:11;98444.59;;;14.20;84.15
9740;BME280;4909;42.680;26.324;2022-11-06T01:45:42;98448.19;;;14.33;83.81
9740;BME280;4909;42.680;26.324;2022-11-06T01:48:10;98464.00;;;14.38;83.45
9740;BME280;4909;42.680;26.324;2022-11-06T01:50:41;98459.94;;;14.30;83.91
9740;BME280;4909;42.680;26.324;2022-11-06T01:53:11;98439.66;;;14.28;83.75
9740;BME280;4909;42.680;26.324;2022-11-06T01:55:42;98466.47;;;14.41;83.58
9740;BME280;4909;42.680;26.324;2022-11-06T01:58:11;98464.53;;;14.43;83.71
9740;BME280;4909;42.680;26.324;2022-11-06T02:00:40;98464.13;;;14.34;83.71
9740;BME280;4909;42.680;26.324;2022-11-06T02:03:07;98460.34;;;14.39;83.32
9740;BME280;4909;42.680;26.324;2022-11-06T02:05:36;98458.78;;;14.34;83.57
9740;BME280;4909;42.680;26.324;2022-11-06T02:08:04;98457.00;;;14.35;83.04
9740;BME280;4909;42.680;26.324;2022-11-06T02:10:33;98459.41;;;14.40;82.98
9740;BME280;4909;42.680;26.324;2022-11-06T02:13:11;98462.84;;;14.42;82.86
9740;BME280;4909;42.680;26.324;2022-11-06T02:15:46;98456.78;;;14.24;82.93
9740;BME280;4909;42.680;26.324;2022-11-06T02:18:47;98456.78;;;14.10;83.81
9740;BME280;4909;42.680;26.324;2022-11-06T02:21:34;98453.94;;;14.13;84.01
9740;BME280;4909;42.680;26.324;2022-11-06T02:24:18;98456.41;;;14.16;84.13
9740;BME280;4909;42.680;26.324;2022-11-06T02:27:04;98458.44;;;14.26;83.74
9740;BME280;4909;42.680;26.324;2022-11-06T02:29:38;98449.34;;;14.15;84.22
9740;BME280;4909;42.680;26.324;2022-11-06T02:32:09;98450.31;;;14.14;84.64
9740;BME280;4909;42.680;26.324;2022-11-06T02:34:38;98454.69;;;14.15;84.65
9740;BME280;4909;42.680;26.324;2022-11-06T02:37:10;98459.38;;;14.25;84.34
9740;BME280;4909;42.680;26.324;2022-11-06T02:39:40;98460.53;;;14.21;84.45
9740;BME280;4909;42.680;26.324;2022-11-06T02:42:11;98453.25;;;14.23;84.64
9740;BME280;4909;42.680;26.324;2022-11-06T02:44:41;98447.38;;;14.32;84.51
9740;BME280;4909;42.680;26.324;2022-11-06T02:47:11;98456.72;;;14.40;84.21
9740;BME280;4909;42.680;26.324;2022-11-06T02:49:43;98456.44;;;14.44;84.08
9740;BME280;4909;42.680;26.324;2022-11-06T02:52:17;98459.75;;;14.33;84.48
9740;BME280;4909;42.680;26.324;2022-11-06T02:54:47;98452.25;;;14.40;84.69
9740;BME280;4909;42.680;26.324;2022-11-06T02:57:18;98455.59;;;14.44;84.63
9740;BME280;4909;42.680;26.324;2022-11-06T02:59:50;98454.16;;;14.52;84.77
9740;BME280;4909;42.680;26.324;2022-11-06T03:02:22;98452.53;;;14.50;84.63
9740;BME280;4909;42.680;26.324;2022-11-06T03:04:56;98446.81;;;14.42;84.81
9740;BME280;4909;42.680;26.324;2022-11-06T03:07:27;98441.34;;;14.29;85.76
9740;BME280;4909;42.680;26.324;2022-11-06T03:09:56;98437.94;;;14.27;86.02
9740;BME280;4909;42.680;26.324;2022-11-06T03:12:27;98442.44;;;14.41;85.84
9740;BME280;4909;42.680;26.324;2022-11-06T03:14:59;98445.03;;;14.42;85.60
9740;BME280;4909;42.680;26.324;2022-11-06T03:17:37;98442.34;;;14.42;85.71
9740;BME280;4909;42.680;26.324;2022-11-06T03:20:15;98437.97;;;14.41;86.00
9740;BME280;4909;42.680;26.324;2022-11-06T03:22:46;98443.94;;;14.45;85.04
9740;BME280;4909;42.680;26.324;2022-11-06T03:25:19;98441.50;;;14.42;85.40
9740;BME280;4909;42.680;26.324;2022-11-06T03:27:53;98444.44;;;14.37;86.12
9740;BME280;4909;42.680;26.324;2022-11-06T03:30:21;98442.53;;;14.39;86.24
9740;BME280;4909;42.680;26.324;2022-11-06T03:32:51;98451.66;;;14.35;86.67
9740;BME280;4909;42.680;26.324;2022-11-06T03:35:21;98447.88;;;14.39;86.53
9740;BME280;4909;42.680;26.324;2022-11-06T03:37:54;98445.66;;;14.31;86.77
9740;BME280;4909;42.680;26.324;2022-11-06T03:40:25;98440.09;;;14.34;86.23
9740;BME280;4909;42.680;26.324;2022-11-06T03:42:57;98441.19;;;14.46;86.01
9740;BME280;4909;42.680;26.324;2022-11-06T03:45:26;98440.13;;;14.49;85.44
9740;BME280;4909;42.680;26.324;2022-11-06T03:47:58;98451.31;;;14.41;85.85
9740;BME280;4909;42.680;26.324;2022-11-06T03:50:30;98440.19;;;14.33;86.58
9740;BME280;4909;42.680;26.324;2022-11-06T03:53:03;98443.06;;;14.30;88.12
9740;BME280;4909;42.680;26.324;2022-11-06T03:55:35;98447.25;;;14.34;88.34
9740;BME280;4909;42.680;26.324;2022-11-06T03:58:08;98443.59;;;14.37;88.45
9740;BME280;4909;42.680;26.324;2022-11-06T04:00:39;98444.03;;;14.43;87.91
9740;BME280;4909;42.680;26.324;2022-11-06T04:03:13;98445.19;;;14.39;87.83
9740;BME280;4909;42.680;26.324;2022-11-06T04:05:46;98453.03;;;14.42;87.63
9740;BME280;4909;42.680;26.324;2022-11-06T04:08:15;98444.16;;;14.42;87.90
9740;BME280;4909;42.680;26.324;2022-11-06T04:11:02;98450.63;;;14.52;87.80
9740;BME280;4909;42.680;26.324;2022-11-06T04:13:50;98451.72;;;14.33;88.71
9740;BME280;4909;42.680;26.324;2022-11-06T04:16:29;98439.38;;;14.32;88.61
9740;BME280;4909;42.680;26.324;2022-11-06T04:18:57;98445.03;;;14.42;87.88
9740;BME280;4909;42.680;26.324;2022-11-06T04:21:32;98438.31;;;14.35;88.33
9740;BME280;4909;42.680;26.324;2022-11-06T04:24:11;98435.84;;;14.32;88.74
9740;BME280;4909;42.680;26.324;2022-11-06T04:27:22;98432.09;;;14.34;89.06
9740;BME280;4909;42.680;26.324;2022-11-06T04:30:05;98431.09;;;14.37;88.40
9740;BME280;4909;42.680;26.324;2022-11-06T04:32:46;98434.44;;;14.41;88.75
9740;BME280;4909;42.680;26.324;2022-11-06T04:35:21;98439.84;;;14.39;89.50
9740;BME280;4909;42.680;26.324;2022-11-06T04:37:57;98446.13;;;14.38;90.51
9740;BME280;4909;42.680;26.324;2022-11-06T04:40:34;98416.47;;;14.28;90.40
9740;BME280;4909;42.680;26.324;2022-11-06T04:43:07;98454.94;;;14.40;91.33
9740;BME280;4909;42.680;26.324;2022-11-06T04:45:41;98448.97;;;14.35;92.56
9740;BME280;4909;42.680;26.324;2022-11-06T04:48:11;98454.25;;;14.51;92.19
9740;BME280;4909;42.680;26.324;2022-11-06T04:50:41;98451.38;;;14.54;91.57
9740;BME280;4909;42.680;26.324;2022-11-06T04:53:10;98445.19;;;14.53;91.34
9740;BME280;4909;42.680;26.324;2022-11-06T04:55:44;98449.88;;;14.50;91.49
9740;BME280;4909;42.680;26.324;2022-11-06T04:58:12;98449.28;;;14.30;92.47
9740;BME280;4909;42.680;26.324;2022-11-06T05:00:44;98451.72;;;14.33;92.32
9740;BME280;4909;42.680;26.324;2022-11-06T05:03:11;98451.03;;;14.46;91.98
9740;BME280;4909;42.680;26.324;2022-11-06T05:05:38;98458.53;;;14.53;91.92
9740;BME280;4909;42.680;26.324;2022-11-06T05:08:05;98451.59;;;14.51;91.79
9740;BME280;4909;42.680;26.324;2022-11-06T05:10:32;98454.06;;;14.54;91.91
9740;BME280;4909;42.680;26.324;2022-11-06T05:12:59;98455.00;;;14.53;92.23
9740;BME280;4909;42.680;26.324;2022-11-06T05:15:26;98456.84;;;14.52;93.02
9740;BME280;4909;42.680;26.324;2022-11-06T05:17:56;98463.56;;;14.58;93.70
9740;BME280;4909;42.680;26.324;2022-11-06T05:20:22;98443.28;;;14.41;93.48
9740;BME280;4909;42.680;26.324;2022-11-06T05:22:49;98475.25;;;14.57;93.42
9740;BME280;4909;42.680;26.324;2022-11-06T05:25:26;98475.03;;;14.60;93.61
9740;BME280;4909;42.680;26.324;2022-11-06T05:27:54;98477.72;;;14.60;93.69
9740;BME280;4909;42.680;26.324;2022-11-06T05:30:21;98479.00;;;14.67;93.12
9740;BME280;4909;42.680;26.324;2022-11-06T05:32:48;98465.56;;;14.68;92.12
9740;BME280;4909;42.680;26.324;2022-11-06T05:35:17;98488.06;;;14.93;90.66
9740;BME280;4909;42.680;26.324;2022-11-06T05:37:45;98495.41;;;14.89;91.09
9740;BME280;4909;42.680;26.324;2022-11-06T05:40:12;98490.06;;;14.89;91.45
9740;BME280;4909;42.680;26.324;2022-11-06T05:42:40;98491.78;;;14.90;91.14
9740;BME280;4909;42.680;26.324;2022-11-06T05:45:08;98494.66;;;14.87;91.51
9740;BME280;4909;42.680;26.324;2022-11-06T05:47:39;98493.34;;;14.80;91.81
9740;BME280;4909;42.680;26.324;2022-11-06T05:50:06;98497.78;;;14.94;91.34
9740;BME280;4909;42.680;26.324;2022-11-06T05:52:35;98500.50;;;15.06;90.04
9740;BME280;4909;42.680;26.324;2022-11-06T05:55:02;98506.63;;;15.08;89.74
9740;BME280;4909;42.680;26.324;2022-11-06T05:57:29;98506.47;;;14.97;90.68
9740;BME280;4909;42.680;26.324;2022-11-06T05:59:55;98505.72;;;14.95;91.02
9740;BME280;4909;42.680;26.324;2022-11-06T06:02:22;98518.63;;;15.15;90.29
9740;BME280;4909;42.680;26.324;2022-11-06T06:04:49;98514.06;;;15.17;90.08
9740;BME280;4909;42.680;26.324;2022-11-06T06:07:16;98521.22;;;15.17;90.35
9740;BME280;4909;42.680;26.324;2022-11-06T06:09:44;98511.03;;;15.09;91.11
9740;BME280;4909;42.680;26.324;2022-11-06T06:12:11;98520.19;;;15.19;90.62
9740;BME280;4909;42.680;26.324;2022-11-06T06:14:38;98514.88;;;15.32;90.22
9740;BME280;4909;42.680;26.324;2022-11-06T06:17:05;98522.28;;;15.41;88.97
9740;BME280;4909;42.680;26.324;2022-11-06T06:19:32;98521.00;;;15.34;89.57
9740;BME280;4909;42.680;26.324;2022-11-06T06:21:59;98523.16;;;15.42;88.67
9740;BME280;4909;42.680;26.324;2022-11-06T06:24:26;98525.78;;;15.56;88.32
9740;BME280;4909;42.680;26.324;2022-11-06T06:26:54;98524.75;;;15.44;89.09
9740;BME280;4909;42.680;26.324;2022-11-06T06:29:21;98523.13;;;15.56;88.73
9740;BME280;4909;42.680;26.324;2022-11-06T06:31:47;98530.91;;;15.73;87.79
9740;BME280;4909;42.680;26.324;2022-11-06T06:34:15;98527.38;;;15.73;87.65
9740;BME280;4909;42.680;26.324;2022-11-06T06:36:42;98519.84;;;15.65;87.83
9740;BME280;4909;42.680;26.324;2022-11-06T06:39:08;98527.00;;;15.64;87.93
9740;BME280;4909;42.680;26.324;2022-11-06T06:41:35;98525.13;;;15.79;87.44
9740;BME280;4909;42.680;26.324;2022-11-06T06:44:04;98532.50;;;15.76;87.64
9740;BME280;4909;42.680;26.324;2022-11-06T06:46:31;98536.66;;;15.67;87.60
9740;BME280;4909;42.680;26.324;2022-11-06T06:48:57;98529.97;;;15.87;87.00
9740;BME280;4909;42.680;26.324;2022-11-06T06:51:24;98535.31;;;15.87;86.71
9740;BME280;4909;42.680;26.324;2022-11-06T06:53:51;98544.63;;;15.94;86.61
9740;BME280;4909;42.680;26.324;2022-11-06T06:56:18;98537.78;;;16.02;86.24
9740;BME280;4909;42.680;26.324;2022-11-06T06:58:44;98535.16;;;16.15;85.48
9740;BME280;4909;42.680;26.324;2022-11-06T07:01:13;98517.53;;;15.86;86.17
9740;BME280;4909;42.680;26.324;2022-11-06T07:03:39;98532.25;;;16.18;85.59
9740;BME280;4909;42.680;26.324;2022-11-06T07:06:06;98504.19;;;16.11;84.78
9740;BME280;4909;42.680;26.324;2022-11-06T07:08:33;98542.13;;;16.43;84.27
9740;BME280;4909;42.680;26.324;2022-11-06T07:11:01;98544.69;;;16.57;83.52
9740;BME280;4909;42.680;26.324;2022-11-06T07:13:29;98548.47;;;16.55;82.89
9740;BME280;4909;42.680;26.324;2022-11-06T07:15:55;98549.84;;;16.47;83.35
9740;BME280;4909;42.680;26.324;2022-11-06T07:18:24;98557.78;;;16.49;83.41
9740;BME280;4909;42.680;26.324;2022-11-06T07:20:51;98560.38;;;16.63;82.95
9740;BME280;4909;42.680;26.324;2022-11-06T07:23:18;98555.25;;;16.60;82.93
9740;BME280;4909;42.680;26.324;2022-11-06T07:25:50;98558.25;;;16.68;82.89
9740;BME280;4909;42.680;26.324;2022-11-06T07:28:18;98561.22;;;16.76;82.31
9740;BME280;4909;42.680;26.324;2022-11-06T07:30:45;98556.84;;;16.88;81.93
9740;BME280;4909;42.680;26.324;2022-11-06T07:33:12;98544.81;;;16.93;81.08
9740;BME280;4909;42.680;26.324;2022-11-06T07:35:43;98569.00;;;17.17;80.09
9740;BME280;4909;42.680;26.324;2022-11-06T07:38:10;98570.72;;;17.18;80.08
9740;BME280;4909;42.680;26.324;2022-11-06T07:40:36;98578.50;;;17.34;79.25
9740;BME280;4909;42.680;26.324;2022-11-06T07:43:04;98572.00;;;17.49;78.64
9740;BME280;4909;42.680;26.324;2022-11-06T07:45:32;98585.44;;;17.62;78.51
9740;BME280;4909;42.680;26.324;2022-11-06T07:47:59;98580.06;;;18.09;76.63
9740;BME280;4909;42.680;26.324;2022-11-06T07:50:26;98576.84;;;18.39;74.45
9740;BME280;4909;42.680;26.324;2022-11-06T07:52:54;98572.50;;;18.60;73.66
9740;BME280;4909;42.680;26.324;2022-11-06T07:55:22;98583.81;;;19.21;71.71
9740;BME280;4909;42.680;26.324;2022-11-06T07:57:49;98589.88;;;19.68;69.50
9740;BME280;4909;42.680;26.324;2022-11-06T08:00:16;98591.31;;;19.83;69.12
9740;BME280;4909;42.680;26.324;2022-11-06T08:02:43;98583.59;;;20.10;68.20
9740;BME280;4909;42.680;26.324;2022-11-06T08:05:09;98596.25;;;20.42;66.75
9740;BME280;4909;42.680;26.324;2022-11-06T08:07:36;98583.47;;;20.44;66.19
9740;BME280;4909;42.680;26.324;2022-11-06T08:10:05;98593.00;;;20.68;65.54
9740;BME280;4909;42.680;26.324;2022-11-06T08:12:32;98598.34;;;20.79;64.59
9740;BME280;4909;42.680;26.324;2022-11-06T08:14:59;98590.38;;;20.78;64.39
9740;BME280;4909;42.680;26.324;2022-11-06T08:17:26;98594.44;;;20.72;64.11
9740;BME280;4909;42.680;26.324;2022-11-06T08:19:54;98599.06;;;20.61;62.06
9740;BME280;4909;42.680;26.324;2022-11-06T08:22:21;98595.91;;;20.56;61.97
9740;BME280;4909;42.680;26.324;2022-11-06T08:24:48;98600.72;;;20.52;62.46
9740;BME280;4909;42.680;26.324;2022-11-06T08:27:16;98595.63;;;20.59;62.38
9740;BME280;4909;42.680;26.324;2022-11-06T08:29:43;98582.09;;;20.49;61.94
9740;BME280;4909;42.680;26.324;2022-11-06T08:32:09;98590.56;;;20.45;62.80
9740;BME280;4909;42.680;26.324;2022-11-06T08:34:36;98599.88;;;20.52;61.99
9740;BME280;4909;42.680;26.324;2022-11-06T08:37:03;98596.84;;;20.66;61.49
9740;BME280;4909;42.680;26.324;2022-11-06T08:39:30;98598.69;;;20.65;61.94
9740;BME280;4909;42.680;26.324;2022-11-06T08:41:57;98592.63;;;20.52;62.40
9740;BME280;4909;42.680;26.324;2022-11-06T08:44:25;98596.91;;;20.23;62.91
9740;BME280;4909;42.680;26.324;2022-11-06T08:46:52;98600.31;;;20.25;63.12
9740;BME280;4909;42.680;26.324;2022-11-06T08:49:19;98599.00;;;20.19;63.33
9740;BME280;4909;42.680;26.324;2022-11-06T08:51:45;98608.72;;;20.11;63.78
9740;BME280;4909;42.680;26.324;2022-11-06T08:54:12;98608.41;;;20.25;63.54
9740;BME280;4909;42.680;26.324;2022-11-06T08:56:39;98604.97;;;20.55;62.88
9740;BME280;4909;42.680;26.324;2022-11-06T08:59:06;98607.63;;;20.96;60.99
9740;BME280;4909;42.680;26.324;2022-11-06T09:01:34;98617.31;;;21.59;58.88
9740;BME280;4909;42.680;26.324;2022-11-06T09:04:01;98626.78;;;21.84;57.60
9740;BME280;4909;42.680;26.324;2022-11-06T09:06:28;98615.34;;;21.61;58.08
9740;BME280;4909;42.680;26.324;2022-11-06T09:08:55;98616.19;;;21.22;59.35
9740;BME280;4909;42.680;26.324;2022-11-06T09:11:24;98616.06;;;21.03;60.29
9740;BME280;4909;42.680;26.324;2022-11-06T09:13:53;98607.69;;;20.75;61.29
9740;BME280;4909;42.680;26.324;2022-11-06T09:16:20;98612.56;;;20.61;61.57
9740;BME280;4909;42.680;26.324;2022-11-06T09:18:48;98614.59;;;20.48;62.57
9740;BME280;4909;42.680;26.324;2022-11-06T09:21:15;98597.78;;;20.23;63.12
9740;BME280;4909;42.680;26.324;2022-11-06T09:23:42;98587.75;;;20.14;64.02
9740;BME280;4909;42.680;26.324;2022-11-06T09:26:10;98600.13;;;20.17;64.07
9740;BME280;4909;42.680;26.324;2022-11-06T09:28:37;98594.06;;;20.24;63.63
9740;BME280;4909;42.680;26.324;2022-11-06T09:31:04;98603.41;;;20.31;63.19
9740;BME280;4909;42.680;26.324;2022-11-06T09:33:31;98605.13;;;20.21;63.71
9740;BME280;4909;42.680;26.324;2022-11-06T09:36:02;98596.97;;;20.12;64.05
9740;BME280;4909;42.680;26.324;2022-11-06T09:38:29;98588.19;;;20.30;63.24
9740;BME280;4909;42.680;26.324;2022-11-06T09:40:58;98592.25;;;20.25;63.72
9740;BME280;4909;42.680;26.324;2022-11-06T09:43:32;98588.00;;;20.43;62.99
9740;BME280;4909;42.680;26.324;2022-11-06T09:46:12;98585.25;;;20.54;62.16
9740;BME280;4909;42.680;26.324;2022-11-06T09:48:48;98589.38;;;20.58;62.23
9740;BME280;4909;42.680;26.324;2022-11-06T09:51:31;98591.22;;;20.78;60.97
9740;BME280;4909;42.680;26.324;2022-11-06T09:54:03;98581.63;;;20.86;61.28
9740;BME280;4909;42.680;26.324;2022-11-06T09:56:34;98590.41;;;20.88;61.40
9740;BME280;4909;42.680;26.324;2022-11-06T09:59:05;98580.78;;;20.85;60.03
9740;BME280;4909;42.680;26.324;2022-11-06T10:01:40;98578.56;;;21.00;60.14
9740;BME280;4909;42.680;26.324;2022-11-06T10:04:17;98576.63;;;20.81;60.63
9740;BME280;4909;42.680;26.324;2022-11-06T10:06:48;98573.69;;;20.94;60.18
9740;BME280;4909;42.680;26.324;2022-11-06T10:09:15;98580.94;;;20.93;60.08
9740;BME280;4909;42.680;26.324;2022-11-06T10:11:58;98570.16;;;21.14;58.70
9740;BME280;4909;42.680;26.324;2022-11-06T10:14:40;98575.53;;;21.14;58.49
9740;BME280;4909;42.680;26.324;2022-11-06T10:17:20;98568.06;;;21.06;59.28
9740;BME280;4909;42.680;26.324;2022-11-06T10:19:55;98539.13;;;20.78;59.90
9740;BME280;4909;42.680;26.324;2022-11-06T10:22:27;98563.38;;;20.99;59.04
9740;BME280;4909;42.680;26.324;2022-11-06T10:25:02;98556.28;;;21.07;58.62
9740;BME280;4909;42.680;26.324;2022-11-06T10:27:39;98553.41;;;21.20;58.77
9740;BME280;4909;42.680;26.324;2022-11-06T10:30:09;98545.47;;;21.28;58.02
9740;BME280;4909;42.680;26.324;2022-11-06T10:32:54;98550.19;;;21.45;56.33
9740;BME280;4909;42.680;26.324;2022-11-06T10:35:27;98547.66;;;21.44;56.48
9740;BME280;4909;42.680;26.324;2022-11-06T10:38:02;98555.41;;;21.28;56.92
9740;BME280;4909;42.680;26.324;2022-11-06T10:40:32;98548.31;;;21.36;56.51
9740;BME280;4909;42.680;26.324;2022-11-06T10:43:07;98535.28;;;21.41;55.45
9740;BME280;4909;42.680;26.324;2022-11-06T10:45:43;98522.03;;;21.29;55.90
9740;BME280;4909;42.680;26.324;2022-11-06T10:48:20;98544.63;;;21.37;56.57
9740;BME280;4909;42.680;26.324;2022-11-06T10:50:54;98535.78;;;21.25;56.56
9740;BME280;4909;42.680;26.324;2022-11-06T10:53:33;98532.06;;;21.17;56.75
9740;BME280;4909;42.680;26.324;2022-11-06T10:58:52;98531.53;;;20.93;56.19
9740;BME280;4909;42.680;26.324;2022-11-06T11:01:19;98525.50;;;20.79;56.02
9740;BME280;4909;42.680;26.324;2022-11-06T11:03:46;98523.84;;;20.88;56.35
9740;BME280;4909;42.680;26.324;2022-11-06T11:06:14;98523.66;;;21.10;55.34
9740;BME280;4909;42.680;26.324;2022-11-06T11:08:43;98513.22;;;20.96;56.54
9740;BME280;4909;42.680;26.324;2022-11-06T11:11:23;98498.25;;;20.82;57.19
9740;BME280;4909;42.680;26.324;2022-11-06T11:14:12;98520.81;;;21.12;56.90
9740;BME280;4909;42.680;26.324;2022-11-06T11:16:41;98517.91;;;21.24;56.85
9740;BME280;4909;42.680;26.324;2022-11-06T11:19:24;98508.56;;;21.08;57.54
9740;BME280;4909;42.680;26.324;2022-11-06T11:21:52;98505.56;;;21.01;56.68
9740;BME280;4909;42.680;26.324;2022-11-06T11:24:21;98510.16;;;21.10;57.10
9740;BME280;4909;42.680;26.324;2022-11-06T11:26:49;98499.38;;;21.10;56.29
9740;BME280;4909;42.680;26.324;2022-11-06T11:29:22;98504.53;;;21.23;55.62
9740;BME280;4909;42.680;26.324;2022-11-06T11:31:51;98507.13;;;21.34;55.57
9740;BME280;4909;42.680;26.324;2022-11-06T11:34:21;98504.72;;;21.41;55.47
9740;BME280;4909;42.680;26.324;2022-11-06T11:36:54;98501.72;;;21.34;55.36
9740;BME280;4909;42.680;26.324;2022-11-06T11:39:27;98505.69;;;21.30;55.46
9740;BME280;4909;42.680;26.324;2022-11-06T11:42:16;98510.38;;;21.28;55.05
9740;BME280;4909;42.680;26.324;2022-11-06T11:45:05;98504.41;;;21.24;55.62
9740;BME280;4909;42.680;26.324;2022-11-06T11:47:38;98507.13;;;21.24;54.91
9740;BME280;4909;42.680;26.324;2022-11-06T11:50:24;98509.06;;;21.22;55.18
9740;BME280;4909;42.680;26.324;2022-11-06T11:52:54;98512.75;;;21.21;55.63
9740;BME280;4909;42.680;26.324;2022-11-06T11:55:25;98491.47;;;21.18;55.78
9740;BME280;4909;42.680;26.324;2022-11-06T11:57:54;98499.16;;;21.33;54.54
9740;BME280;4909;42.680;26.324;2022-11-06T12:00:23;98504.13;;;21.28;55.03
9740;BME280;4909;42.680;26.324;2022-11-06T12:02:52;98501.69;;;21.15;54.95
9740;BME280;4909;42.680;26.324;2022-11-06T12:05:22;98498.94;;;21.05;55.49
9740;BME280;4909;42.680;26.324;2022-11-06T12:07:53;98503.38;;;21.16;55.21
9740;BME280;4909;42.680;26.324;2022-11-06T12:10:28;98507.13;;;21.24;55.44
9740;BME280;4909;42.680;26.324;2022-11-06T12:12:57;98497.56;;;21.30;55.54
9740;BME280;4909;42.680;26.324;2022-11-06T12:15:27;98502.69;;;21.23;55.82
9740;BME280;4909;42.680;26.324;2022-11-06T12:17:58;98503.63;;;21.13;56.77
9740;BME280;4909;42.680;26.324;2022-11-06T12:20:31;98509.78;;;21.15;57.20
9740;BME280;4909;42.680;26.324;2022-11-06T12:23:01;98500.97;;;21.22;58.02
9740;BME280;4909;42.680;26.324;2022-11-06T12:25:35;98498.34;;;21.11;59.99
9740;BME280;4909;42.680;26.324;2022-11-06T12:28:09;98499.47;;;20.99;63.81
9740;BME280;4909;42.680;26.324;2022-11-06T12:30:40;98493.31;;;20.88;66.08
9740;BME280;4909;42.680;26.324;2022-11-06T12:33:10;98497.84;;;20.87;66.95
9740;BME280;4909;42.680;26.324;2022-11-06T12:35:43;98492.81;;;20.73;68.69
9740;BME280;4909;42.680;26.324;2022-11-06T12:38:18;98476.88;;;20.39;70.45
9740;BME280;4909;42.680;26.324;2022-11-06T12:40:53;98478.47;;;20.42;70.75
9740;BME280;4909;42.680;26.324;2022-11-06T12:43:28;98476.44;;;20.34;71.01
9740;BME280;4909;42.680;26.324;2022-11-06T12:46:04;98479.00;;;20.36;71.09
9740;BME280;4909;42.680;26.324;2022-11-06T12:48:44;98478.78;;;20.49;71.09
9740;BME280;4909;42.680;26.324;2022-11-06T12:51:22;98492.09;;;20.41;70.93
9740;BME280;4909;42.680;26.324;2022-11-06T12:54:03;98487.81;;;20.38;70.34
9740;BME280;4909;42.680;26.324;2022-11-06T12:56:39;98483.56;;;20.24;68.69
9740;BME280;4909;42.680;26.324;2022-11-06T12:59:20;98486.03;;;20.27;66.80
9740;BME280;4909;42.680;26.324;2022-11-06T13:01:56;98495.94;;;20.27;66.18
9740;BME280;4909;42.680;26.324;2022-11-06T13:04:39;98494.09;;;20.27;64.78
9740;BME280;4909;42.680;26.324;2022-11-06T13:07:44;98491.47;;;20.16;63.80
9740;BME280;4909;42.680;26.324;2022-11-06T13:10:25;98491.03;;;20.32;62.83
9740;BME280;4909;42.680;26.324;2022-11-06T13:13:06;98497.59;;;20.18;62.30
9740;BME280;4909;42.680;26.324;2022-11-06T13:15:47;98500.75;;;20.23;62.23
9740;BME280;4909;42.680;26.324;2022-11-06T13:18:19;98492.13;;;20.29;61.98
9740;BME280;4909;42.680;26.324;2022-11-06T13:20:53;98473.53;;;20.06;62.57
9740;BME280;4909;42.680;26.324;2022-11-06T13:23:24;98500.75;;;20.23;63.38
9740;BME280;4909;42.680;26.324;2022-11-06T13:25:57;98498.69;;;20.16;73.42
9740;BME280;4909;42.680;26.324;2022-11-06T13:28:34;98487.47;;;20.11;76.98
9740;BME280;4909;42.680;26.324;2022-11-06T13:31:05;98490.13;;;19.90;79.79
9740;BME280;4909;42.680;26.324;2022-11-06T13:33:35;98494.69;;;19.89;80.88